createdAt,value
2018-12-09T00:00:32.169Z,1.60
2018-12-09T00:03:00.839Z,0.75
2018-12-09T00:05:29.621Z,0.45
2018-12-09T00:07:59.024Z,0.40
2018-12-09T00:10:28.530Z,0.40
2018-12-09T00:12:58.238Z,0.68
2018-12-09T00:15:27.387Z,0.33
2018-12-09T00:17:56.684Z,0.40
2018-12-09T00:20:25.953Z,1.05
2018-12-09T00:22:55.306Z,0.33
2018-12-09T00:25:24.741Z,0.40
2018-12-09T00:27:53.346Z,0.40
2018-12-09T00:30:22.964Z,0.90
2018-12-09T00:32:51.631Z,0.60
2018-12-09T00:35:20.745Z,0.62
2018-12-09T00:37:49.529Z,1.10
2018-12-09T00:40:24.926Z,0.50
2018-12-09T00:42:53.532Z,0.40
2018-12-09T00:45:22.101Z,0.45
2018-12-09T00:47:50.670Z,0.40
2018-12-09T00:50:19.798Z,0.45
2018-12-09T00:52:48.784Z,0.40
2018-12-09T00:55:17.351Z,0.55
2018-12-09T00:57:47.007Z,0.90
2018-12-09T01:00:16.344Z,1.35
2018-12-09T01:02:45.483Z,1.40
2018-12-09T01:05:14.790Z,0.40
2018-12-09T01:07:44.202Z,1.60
2018-12-09T01:10:13.139Z,0.80
2018-12-09T01:12:41.955Z,0.57
2018-12-09T01:15:10.735Z,0.40
2018-12-09T01:17:40.607Z,0.53
2018-12-09T01:20:09.691Z,0.40
2018-12-09T01:22:39.551Z,0.40
2018-12-09T01:25:08.769Z,0.95
2018-12-09T01:27:38.516Z,0.33
2018-12-09T01:30:07.895Z,0.40
2018-12-09T01:32:37.886Z,0.47
2018-12-09T01:35:07.205Z,0.40
2018-12-09T01:37:36.574Z,0.50
2018-12-09T01:40:06.671Z,1.32
2018-12-09T01:42:35.625Z,0.40
2018-12-09T01:45:04.845Z,0.40
2018-12-09T01:47:33.881Z,0.42
2018-12-09T01:50:02.744Z,0.55
2018-12-09T01:52:31.670Z,0.72
2018-12-09T01:55:00.346Z,0.40
2018-12-09T01:57:29.172Z,0.40
2018-12-09T01:59:58.562Z,0.40
2018-12-09T02:02:28.172Z,1.15
2018-12-09T02:04:57.316Z,1.55
2018-12-09T02:07:26.299Z,0.40
2018-12-09T02:09:55.351Z,0.65
2018-12-09T02:12:24.473Z,1.02
2018-12-09T02:14:53.275Z,0.62
2018-12-09T02:17:22.557Z,0.42
2018-12-09T02:19:52.175Z,0.45
2018-12-09T02:22:27.439Z,2.15
2018-12-09T02:24:56.613Z,0.65
2018-12-09T02:27:25.509Z,1.50
2018-12-09T02:29:55.189Z,0.50
2018-12-09T02:32:24.455Z,1.00
2018-12-09T02:34:53.346Z,0.35
2018-12-09T02:37:22.621Z,1.37
2018-12-09T02:39:51.230Z,0.80
2018-12-09T02:42:20.937Z,0.60
2018-12-09T02:44:49.689Z,0.70
2018-12-09T02:47:18.305Z,0.47
2018-12-09T02:49:46.956Z,0.42
2018-12-09T02:52:16.245Z,1.00
2018-12-09T02:54:45.626Z,0.55
2018-12-09T02:57:14.461Z,0.50
2018-12-09T02:59:44.169Z,0.70
2018-12-09T03:02:13.145Z,1.25
2018-12-09T03:04:41.802Z,1.05
2018-12-09T03:07:10.496Z,0.68
2018-12-09T03:09:39.079Z,0.45
2018-12-09T03:12:07.903Z,1.45
2018-12-09T03:14:37.124Z,0.60
2018-12-09T03:17:06.788Z,2.12
2018-12-09T03:19:36.451Z,1.47
2018-12-09T03:22:05.686Z,0.25
2018-12-09T03:24:34.297Z,2.45
2018-12-09T03:27:04.102Z,1.10
2018-12-09T03:29:33.719Z,1.37
2018-12-09T03:32:03.148Z,1.55
2018-12-09T03:34:32.216Z,1.82
2018-12-09T03:37:00.985Z,1.87
2018-12-09T03:39:30.190Z,0.85
2018-12-09T03:41:59.060Z,1.20
2018-12-09T03:44:27.648Z,2.12
2018-12-09T03:46:56.846Z,5.30
2018-12-09T03:49:25.965Z,5.17
2018-12-09T03:51:55.456Z,4.92
2018-12-09T03:54:24.932Z,4.05
2018-12-09T03:56:54.200Z,3.87
2018-12-09T03:59:22.998Z,4.35
2018-12-09T04:01:51.923Z,3.45
2018-12-09T04:04:20.494Z,6.35
2018-12-09T04:06:49.669Z,9.20
2018-12-09T04:09:18.225Z,5.03
2018-12-09T04:11:47.041Z,3.90
2018-12-09T04:14:16.471Z,4.95
2018-12-09T04:16:45.256Z,2.15
2018-12-09T04:19:14.405Z,1.87
2018-12-09T04:21:43.157Z,2.62
2018-12-09T04:24:12.604Z,3.87
2018-12-09T04:26:41.181Z,4.60
2018-12-09T04:29:10.379Z,3.50
2018-12-09T04:31:38.991Z,7.78
2018-12-09T04:34:07.606Z,5.17
2018-12-09T04:36:36.562Z,5.72
2018-12-09T04:39:06.234Z,3.20
2018-12-09T04:41:35.100Z,6.37
2018-12-09T04:44:04.043Z,3.65
2018-12-09T04:46:32.657Z,2.87
2018-12-09T04:49:02.141Z,3.12
2018-12-09T04:51:42.733Z,3.45
2018-12-09T04:54:11.430Z,3.95
2018-12-09T04:56:40.749Z,4.65
2018-12-09T04:59:18.933Z,1.98
2018-12-09T05:01:48.557Z,3.33
2018-12-09T05:04:17.386Z,1.87
2018-12-09T05:06:46.454Z,3.27
2018-12-09T05:09:16.224Z,3.90
2018-12-09T05:11:46.638Z,2.92
2018-12-09T05:14:16.289Z,2.67
2018-12-09T05:16:45.081Z,3.92
2018-12-09T05:19:13.700Z,3.90
2018-12-09T05:21:42.970Z,4.80
2018-12-09T05:24:12.320Z,6.03
2018-12-09T05:26:40.964Z,7.85
2018-12-09T05:29:09.769Z,6.70
2018-12-09T05:31:39.041Z,8.70
2018-12-09T05:34:08.660Z,5.05
2018-12-09T05:36:37.775Z,4.90
2018-12-09T05:39:07.326Z,5.30
2018-12-09T05:41:36.341Z,5.53
2018-12-09T05:44:05.149Z,6.45
2018-12-09T05:46:34.177Z,4.30
2018-12-09T05:49:03.754Z,5.55
2018-12-09T05:51:33.050Z,5.87
2018-12-09T05:54:02.063Z,5.78
2018-12-09T05:56:30.724Z,7.72
2018-12-09T05:59:00.090Z,5.20
2018-12-09T06:01:28.725Z,11.75
2018-12-09T06:03:57.648Z,9.90
2018-12-09T06:06:26.827Z,9.15
2018-12-09T06:08:55.525Z,3.12
2018-12-09T06:11:25.038Z,4.37
2018-12-09T06:13:54.561Z,4.47
2018-12-09T06:16:23.415Z,5.33
2018-12-09T06:18:52.634Z,5.50
2018-12-09T06:21:22.211Z,5.25
2018-12-09T06:23:51.637Z,4.62
2018-12-09T06:26:20.298Z,5.10
2018-12-09T06:28:49.070Z,9.28
2018-12-09T06:31:18.283Z,6.80
2018-12-09T06:33:46.951Z,5.65
2018-12-09T06:36:16.379Z,3.62
2018-12-09T06:38:45.337Z,5.05
2018-12-09T06:41:14.755Z,2.65
2018-12-09T06:43:43.965Z,3.25
2018-12-09T06:46:13.788Z,2.60
2018-12-09T06:48:43.303Z,2.92
2018-12-09T06:51:12.268Z,5.53
2018-12-09T06:53:41.102Z,6.35
2018-12-09T06:56:10.005Z,2.52
2018-12-09T06:58:38.982Z,5.08
2018-12-09T07:01:08.054Z,7.03
2018-12-09T07:03:37.249Z,2.58
2018-12-09T07:06:06.021Z,4.92
2018-12-09T07:08:35.274Z,4.95
2018-12-09T07:11:04.152Z,4.50
2018-12-09T07:13:33.044Z,7.47
2018-12-09T07:16:01.656Z,3.47
2018-12-09T07:18:30.748Z,4.95
2018-12-09T07:21:00.056Z,3.10
2018-12-09T07:23:29.026Z,2.85
2018-12-09T07:25:57.780Z,3.37
2018-12-09T07:28:27.297Z,1.85
2018-12-09T07:30:56.561Z,3.58
2018-12-09T07:33:26.278Z,1.82
2018-12-09T07:35:55.251Z,2.02
2018-12-09T07:38:24.243Z,0.93
2018-12-09T07:40:54.177Z,2.80
2018-12-09T07:43:23.403Z,3.12
2018-12-09T07:45:52.933Z,2.67
2018-12-09T07:48:21.596Z,2.62
2018-12-09T07:50:51.358Z,1.40
2018-12-09T07:53:20.619Z,3.70
2018-12-09T07:55:50.136Z,1.22
2018-12-09T07:58:18.814Z,1.57
2018-12-09T08:00:48.206Z,1.00
2018-12-09T08:03:16.890Z,1.77
2018-12-09T08:05:46.475Z,2.83
2018-12-09T08:08:15.932Z,1.82
2018-12-09T08:10:44.493Z,3.50
2018-12-09T08:13:13.475Z,3.75
2018-12-09T08:15:45.108Z,1.40
2018-12-09T08:18:15.052Z,3.90
2018-12-09T08:20:43.750Z,3.80
2018-12-09T08:23:12.419Z,2.77
2018-12-09T08:25:42.132Z,4.03
2018-12-09T08:28:11.333Z,3.10
2018-12-09T08:30:41.179Z,3.00
2018-12-09T08:33:10.139Z,4.12
2018-12-09T08:35:39.008Z,2.02
2018-12-09T08:38:08.777Z,4.67
2018-12-09T08:40:37.717Z,3.58
2018-12-09T08:43:06.817Z,3.77
2018-12-09T08:45:35.655Z,4.85
2018-12-09T08:48:04.259Z,2.72
2018-12-09T08:50:33.251Z,2.77
2018-12-09T08:53:02.187Z,5.70
2018-12-09T08:55:31.110Z,4.75
2018-12-09T08:58:00.162Z,3.75
2018-12-09T09:00:29.709Z,7.00
2018-12-09T09:02:58.554Z,3.87
2018-12-09T09:05:29.835Z,3.15
2018-12-09T09:07:59.205Z,4.17
2018-12-09T09:10:27.898Z,2.87
2018-12-09T09:12:58.383Z,6.67
2018-12-09T09:15:28.004Z,4.08
2018-12-09T09:17:57.517Z,3.33
2018-12-09T09:20:27.218Z,6.75
2018-12-09T09:22:56.492Z,3.98
2018-12-09T09:25:25.985Z,3.08
2018-12-09T09:27:55.384Z,5.67
2018-12-09T09:30:24.300Z,4.42
2018-12-09T09:32:52.888Z,3.70
2018-12-09T09:35:22.168Z,5.05
2018-12-09T09:37:51.109Z,2.67
2018-12-09T09:40:20.235Z,5.28
2018-12-09T09:42:49.751Z,2.37
2018-12-09T09:45:18.615Z,4.95
2018-12-09T09:47:48.152Z,3.52
2018-12-09T09:50:17.709Z,3.40
2018-12-09T09:52:47.266Z,7.78
2018-12-09T09:55:16.419Z,3.27
2018-12-09T09:57:45.109Z,4.10
2018-12-09T10:00:13.719Z,6.83
2018-12-09T10:02:43.201Z,3.25
2018-12-09T10:05:11.783Z,4.10
2018-12-09T10:07:41.122Z,4.12
2018-12-09T10:10:10.404Z,4.72
2018-12-09T10:12:39.692Z,5.97
2018-12-09T10:15:08.383Z,7.90
2018-12-09T10:17:37.799Z,6.50
2018-12-09T10:20:07.276Z,5.10
2018-12-09T10:22:36.001Z,10.23
2018-12-09T10:25:06.475Z,8.85
2018-12-09T10:27:42.805Z,9.85
2018-12-09T10:30:12.141Z,8.50
2018-12-09T10:32:40.812Z,11.40
2018-12-09T10:35:09.513Z,9.15
2018-12-09T10:37:38.361Z,7.22
2018-12-09T10:40:07.659Z,9.00
2018-12-09T10:42:37.034Z,7.45
2018-12-09T10:45:06.615Z,10.23
2018-12-09T10:47:35.901Z,9.25
2018-12-09T10:50:06.841Z,8.13
2018-12-09T10:52:36.145Z,10.23
2018-12-09T10:55:05.644Z,10.50
2018-12-09T10:57:34.851Z,14.90
2018-12-09T11:00:04.191Z,7.37
2018-12-09T11:02:33.268Z,9.25
2018-12-09T11:05:02.515Z,10.28
2018-12-09T11:07:31.515Z,11.90
2018-12-09T11:10:00.966Z,10.30
2018-12-09T11:12:29.765Z,10.55
2018-12-09T11:14:58.521Z,9.68
2018-12-09T11:17:27.630Z,10.10
2018-12-09T11:19:57.179Z,8.13
2018-12-09T11:22:25.864Z,9.38
2018-12-09T11:24:55.117Z,12.78
2018-12-09T11:27:24.194Z,7.67
2018-12-09T11:29:53.387Z,9.48
2018-12-09T11:32:23.023Z,12.78
2018-12-09T11:34:51.863Z,11.70
2018-12-09T11:37:21.183Z,8.00
2018-12-09T11:39:49.953Z,11.15
2018-12-09T11:42:19.083Z,10.65
2018-12-09T11:44:48.774Z,9.48
2018-12-09T11:47:17.549Z,8.80
2018-12-09T11:49:46.871Z,11.97
2018-12-09T11:52:15.725Z,10.15
2018-12-09T11:54:44.333Z,11.95
2018-12-09T11:57:13.676Z,9.30
2018-12-09T11:59:45.165Z,6.78
2018-12-09T12:02:20.008Z,8.10
2018-12-09T12:04:46.148Z,8.83
2018-12-09T12:07:15.741Z,9.00
2018-12-09T12:09:44.949Z,6.50
2018-12-09T12:12:14.009Z,12.30
2018-12-09T12:14:43.527Z,9.58
2018-12-09T12:17:12.451Z,9.08
2018-12-09T12:19:41.126Z,6.00
2018-12-09T12:22:10.029Z,7.97
2018-12-09T12:24:39.741Z,7.30
2018-12-09T12:27:09.351Z,6.28
2018-12-09T12:29:38.743Z,6.95
2018-12-09T12:32:08.420Z,8.93
2018-12-09T12:34:37.032Z,9.88
2018-12-09T12:37:06.049Z,9.58
2018-12-09T12:39:34.940Z,7.67
2018-12-09T12:42:03.515Z,11.35
2018-12-09T12:44:33.055Z,7.80
2018-12-09T12:47:02.637Z,10.05
2018-12-09T12:49:32.468Z,5.70
2018-12-09T12:52:01.649Z,6.70
2018-12-09T12:54:31.223Z,9.78
2018-12-09T12:57:00.664Z,6.33
2018-12-09T12:59:29.445Z,12.30
2018-12-09T13:01:58.527Z,11.78
2018-12-09T13:04:27.471Z,8.33
2018-12-09T13:06:57.027Z,5.40
2018-12-09T13:09:26.517Z,6.72
2018-12-09T13:11:55.400Z,5.67
2018-12-09T13:14:24.761Z,6.53
2018-12-09T13:16:54.085Z,6.62
2018-12-09T13:19:23.059Z,5.42
2018-12-09T13:21:52.388Z,5.42
2018-12-09T13:24:21.324Z,6.53
2018-12-09T13:26:50.427Z,4.37
2018-12-09T13:29:20.179Z,3.80
2018-12-09T13:31:49.685Z,5.35
2018-12-09T13:34:19.110Z,4.90
2018-12-09T13:36:48.752Z,5.80
2018-12-09T13:39:18.301Z,3.37
2018-12-09T13:41:47.953Z,3.85
2018-12-09T13:44:16.876Z,2.47
2018-12-09T13:46:45.765Z,5.50
2018-12-09T13:49:14.481Z,6.35
2018-12-09T13:51:43.917Z,3.98
2018-12-09T13:54:13.575Z,3.47
2018-12-09T13:56:42.376Z,3.25
2018-12-09T13:59:11.200Z,3.90
2018-12-09T14:01:40.094Z,6.42
2018-12-09T14:04:09.291Z,1.85
2018-12-09T14:06:38.205Z,6.30
2018-12-09T14:09:08.024Z,4.15
2018-12-09T14:11:37.326Z,3.65
2018-12-09T14:14:06.592Z,2.22
2018-12-09T14:16:35.412Z,5.72
2018-12-09T14:19:04.312Z,3.58
2018-12-09T14:21:33.254Z,2.60
2018-12-09T14:24:02.012Z,2.95
2018-12-09T14:26:31.256Z,2.62
2018-12-09T14:29:00.340Z,4.75
2018-12-09T14:31:31.135Z,3.70
2018-12-09T14:34:00.089Z,3.12
2018-12-09T14:36:28.952Z,3.60
2018-12-09T14:38:59.366Z,3.00
2018-12-09T14:41:28.016Z,4.25
2018-12-09T14:43:56.729Z,3.00
2018-12-09T14:46:25.349Z,5.28
2018-12-09T14:48:55.756Z,2.72
2018-12-09T14:51:25.256Z,6.40
2018-12-09T14:53:53.963Z,4.12
2018-12-09T14:56:23.372Z,2.37
2018-12-09T14:58:52.123Z,2.70
2018-12-09T15:01:21.826Z,4.15
2018-12-09T15:03:51.135Z,3.10
2018-12-09T15:06:20.009Z,1.92
2018-12-09T15:08:48.705Z,4.00
2018-12-09T15:11:17.553Z,3.30
2018-12-09T15:13:46.215Z,4.40
2018-12-09T15:16:15.920Z,3.47
2018-12-09T15:18:45.210Z,4.75
2018-12-09T15:21:13.881Z,4.15
2018-12-09T15:23:42.501Z,2.08
2018-12-09T15:26:11.284Z,1.45
2018-12-09T15:28:40.745Z,2.83
2018-12-09T15:31:10.213Z,3.72
2018-12-09T15:33:38.945Z,2.77
2018-12-09T15:36:07.781Z,2.08
2018-12-09T15:38:36.660Z,2.45
2018-12-09T15:41:05.275Z,2.75
2018-12-09T15:43:34.904Z,5.50
2018-12-09T15:46:04.600Z,2.83
2018-12-09T15:48:33.198Z,4.08
2018-12-09T15:51:02.235Z,3.00
2018-12-09T15:53:31.037Z,2.33
2018-12-09T15:56:00.249Z,4.12
2018-12-09T15:58:29.358Z,4.10
2018-12-09T16:00:58.430Z,2.52
2018-12-09T16:03:27.239Z,1.82
2018-12-09T16:05:56.300Z,1.52
2018-12-09T16:08:25.030Z,3.35
2018-12-09T16:10:54.007Z,3.22
2018-12-09T16:13:22.714Z,2.37
2018-12-09T16:15:52.339Z,3.67
2018-12-09T16:18:20.927Z,3.27
2018-12-09T16:20:50.389Z,3.17
2018-12-09T16:23:19.775Z,3.80
2018-12-09T16:25:49.264Z,1.80
2018-12-09T16:28:18.080Z,1.07
2018-12-09T16:30:47.360Z,3.42
2018-12-09T16:33:16.055Z,1.85
2018-12-09T16:35:44.682Z,1.20
2018-12-09T16:38:13.393Z,2.20
2018-12-09T16:40:42.403Z,5.80
2018-12-09T16:43:11.833Z,1.90
2018-12-09T16:45:41.003Z,1.92
2018-12-09T16:48:10.378Z,1.15
2018-12-09T16:50:39.177Z,1.47
2018-12-09T16:53:08.604Z,2.02
2018-12-09T16:55:37.490Z,0.70
2018-12-09T16:58:06.507Z,1.62
2018-12-09T17:00:35.394Z,1.67
2018-12-09T17:03:04.507Z,1.27
2018-12-09T17:05:33.326Z,0.70
2018-12-09T17:08:03.040Z,1.95
2018-12-09T17:10:38.591Z,1.62
2018-12-09T17:13:07.334Z,1.05
2018-12-09T17:15:36.369Z,1.25
2018-12-09T17:18:06.012Z,1.22
2018-12-09T17:20:35.436Z,1.37
2018-12-09T17:23:04.099Z,1.30
2018-12-09T17:25:33.908Z,1.20
2018-12-09T17:28:02.610Z,2.65
2018-12-09T17:30:31.368Z,1.27
2018-12-09T17:33:00.398Z,1.20
2018-12-09T17:35:29.150Z,1.50
2018-12-09T17:37:57.781Z,1.67
2018-12-09T17:40:27.081Z,1.15
2018-12-09T17:42:56.434Z,1.15
2018-12-09T17:45:26.061Z,1.87
2018-12-09T17:47:55.512Z,3.12
2018-12-09T17:50:25.273Z,1.45
2018-12-09T17:52:54.629Z,0.70
2018-12-09T17:55:23.929Z,1.10
2018-12-09T17:57:52.758Z,2.90
2018-12-09T18:00:21.656Z,1.82
2018-12-09T18:02:50.772Z,2.40
2018-12-09T18:05:19.472Z,1.62
2018-12-09T18:07:48.858Z,1.98
2018-12-09T18:10:18.300Z,2.25
2018-12-09T18:12:48.085Z,0.60
2018-12-09T18:15:20.614Z,1.22
2018-12-09T18:17:49.892Z,1.92
2018-12-09T18:20:18.708Z,1.02
2018-12-09T18:22:48.177Z,1.10
2018-12-09T18:25:16.802Z,2.50
2018-12-09T18:27:46.496Z,2.00
2018-12-09T18:30:15.540Z,1.65
2018-12-09T18:32:44.661Z,1.35
2018-12-09T18:35:13.398Z,1.72
2018-12-09T18:37:42.750Z,1.60
2018-12-09T18:40:12.189Z,1.55
2018-12-09T18:42:41.766Z,3.10
2018-12-09T18:45:11.562Z,3.67
2018-12-09T18:47:40.732Z,2.70
2018-12-09T18:50:10.103Z,1.40
2018-12-09T18:52:38.922Z,2.30
2018-12-09T18:55:07.680Z,1.67
2018-12-09T18:57:36.315Z,2.42
2018-12-09T19:00:08.437Z,0.70
2018-12-09T19:02:37.923Z,2.45
2018-12-09T19:05:06.722Z,1.05
2018-12-09T19:07:36.106Z,1.67
2018-12-09T19:10:06.226Z,3.08
2018-12-09T19:12:35.154Z,1.75
2018-12-09T19:15:04.849Z,1.25
2018-12-09T19:17:33.840Z,1.30
2018-12-09T19:20:02.816Z,1.37
2018-12-09T19:22:32.371Z,1.20
2018-12-09T19:25:01.410Z,1.67
2018-12-09T19:27:30.609Z,1.87
2018-12-09T19:29:59.231Z,1.15
2018-12-09T19:32:28.203Z,1.87
2018-12-09T19:34:57.138Z,1.75
2018-12-09T19:37:26.025Z,0.60
2018-12-09T19:39:54.931Z,2.45
2018-12-09T19:42:23.744Z,2.77
2018-12-09T19:44:52.437Z,1.47
2018-12-09T19:47:21.413Z,1.07
2018-12-09T19:49:50.187Z,0.95
2018-12-09T19:52:18.768Z,1.50
2018-12-09T19:54:47.764Z,1.57
2018-12-09T19:57:16.485Z,2.02
2018-12-09T19:59:45.071Z,1.62
2018-12-09T20:02:14.049Z,2.12
2018-12-09T20:04:43.675Z,1.70
2018-12-09T20:07:12.431Z,1.82
2018-12-09T20:09:41.073Z,1.12
2018-12-09T20:12:09.962Z,2.30
2018-12-09T20:14:39.161Z,2.27
2018-12-09T20:17:07.892Z,2.98
2018-12-09T20:19:37.248Z,1.40
2018-12-09T20:22:05.969Z,2.50
2018-12-09T20:24:34.897Z,3.00
2018-12-09T20:27:03.493Z,1.92
2018-12-09T20:29:32.363Z,2.02
2018-12-09T20:32:01.741Z,1.75
2018-12-09T20:34:30.596Z,2.02
2018-12-09T20:36:59.948Z,2.45
2018-12-09T20:39:28.613Z,1.85
2018-12-09T20:41:58.301Z,2.90
2018-12-09T20:44:27.122Z,1.50
2018-12-09T20:46:56.333Z,2.25
2018-12-09T20:49:31.474Z,2.25
2018-12-09T20:52:00.416Z,1.75
2018-12-09T20:54:30.170Z,2.58
2018-12-09T20:56:59.145Z,1.80
2018-12-09T20:59:27.992Z,1.40
2018-12-09T21:01:57.592Z,1.32
2018-12-09T21:04:26.272Z,2.75
2018-12-09T21:06:55.707Z,1.67
2018-12-09T21:09:24.387Z,1.30
2018-12-09T21:11:54.404Z,1.45
2018-12-09T21:14:23.446Z,1.65
2018-12-09T21:16:52.728Z,1.72
2018-12-09T21:19:21.538Z,1.27
2018-12-09T21:21:50.958Z,2.00
2018-12-09T21:24:25.687Z,1.92
2018-12-09T21:26:51.964Z,0.98
2018-12-09T21:29:20.670Z,1.50
2018-12-09T21:31:50.942Z,1.92
2018-12-09T21:34:19.603Z,2.05
2018-12-09T21:36:49.278Z,1.00
2018-12-09T21:39:17.859Z,1.87
2018-12-09T21:41:46.684Z,1.40
2018-12-09T21:44:15.956Z,1.10
2018-12-09T21:46:44.672Z,1.75
2018-12-09T21:49:13.349Z,1.00
2018-12-09T21:51:42.405Z,0.53
2018-12-09T21:54:11.150Z,0.98
2018-12-09T21:56:39.955Z,1.15
2018-12-09T21:59:08.704Z,0.62
2018-12-09T22:01:37.533Z,0.98
2018-12-09T22:04:06.423Z,0.98
2018-12-09T22:06:35.937Z,0.72
2018-12-09T22:09:06.663Z,0.88
2018-12-09T22:11:35.398Z,1.42
2018-12-09T22:14:04.443Z,2.47
2018-12-09T22:16:33.108Z,0.62
2018-12-09T22:19:02.820Z,1.22
2018-12-09T22:21:31.613Z,2.05
2018-12-09T22:24:00.478Z,1.25
2018-12-09T22:26:29.288Z,0.80
2018-12-09T22:28:57.853Z,2.30
2018-12-09T22:31:26.553Z,1.02
2018-12-09T22:33:55.927Z,0.88
2018-12-09T22:36:25.383Z,1.77
2018-12-09T22:38:54.007Z,1.05
2018-12-09T22:41:22.765Z,1.75
2018-12-09T22:43:51.536Z,1.65
2018-12-09T22:46:20.422Z,1.15
2018-12-09T22:48:49.153Z,2.30
2018-12-09T22:51:18.068Z,2.77
2018-12-09T22:53:47.410Z,1.47
2018-12-09T22:56:16.019Z,0.60
2018-12-09T22:58:45.705Z,0.65
2018-12-09T23:01:21.460Z,1.50
2018-12-09T23:03:50.482Z,1.15
2018-12-09T23:06:20.144Z,2.30
2018-12-09T23:08:49.027Z,0.70
2018-12-09T23:11:18.194Z,1.00
2018-12-09T23:13:47.511Z,0.80
2018-12-09T23:16:16.263Z,0.72
2018-12-09T23:18:45.343Z,2.92
2018-12-09T23:21:14.469Z,1.00
2018-12-09T23:23:43.940Z,1.12
2018-12-09T23:26:12.627Z,1.22
2018-12-09T23:28:41.592Z,1.05
2018-12-09T23:31:10.410Z,0.98
2018-12-09T23:33:40.049Z,1.30
2018-12-09T23:36:09.548Z,0.78
2018-12-09T23:38:39.316Z,0.50
2018-12-09T23:41:08.725Z,1.05
2018-12-09T23:43:37.625Z,0.85
2018-12-09T23:46:06.861Z,0.60
2018-12-09T23:48:36.319Z,0.98
2018-12-09T23:51:04.974Z,0.65
2018-12-09T23:53:34.544Z,0.93
2018-12-09T23:56:03.605Z,0.68
2018-12-09T23:58:32.972Z,0.47
